createdAt,value
2023-01-05T00:00:16.615Z,0
2023-01-05T00:01:15.436Z,0
2023-01-05T00:02:20.198Z,0
2023-01-05T00:03:15.301Z,0
2023-01-05T00:04:15.691Z,0
2023-01-05T00:05:15.229Z,0
2023-01-05T00:06:15.496Z,0
2023-01-05T00:07:15.164Z,0.219
2023-01-05T00:08:15.019Z,0
2023-01-05T00:09:15.344Z,0
2023-01-05T00:10:15.469Z,0
2023-01-05T00:11:15.581Z,0
2023-01-05T00:12:15.491Z,0.790
2023-01-05T00:13:15.405Z,0
2023-01-05T00:14:15.640Z,0
2023-01-05T00:15:15.881Z,0
2023-01-05T00:16:15.017Z,0
2023-01-05T00:17:15.766Z,0
2023-01-05T00:18:15.063Z,0
2023-01-05T00:19:15.406Z,0.449
2023-01-05T00:20:15.756Z,0
2023-01-05T00:21:15.273Z,0
2023-01-05T00:22:15.615Z,0
2023-01-05T00:23:16.009Z,0
2023-01-05T00:24:15.025Z,0.560
2023-01-05T00:25:15.718Z,0
2023-01-05T00:26:14.048Z,0.340
2023-01-05T00:27:15.907Z,0
2023-01-05T00:28:15.249Z,0
2023-01-05T00:29:15.603Z,0
2023-01-05T00:30:16.028Z,0
2023-01-05T00:31:15.680Z,0.109
2023-01-05T00:32:16.036Z,0
2023-01-05T00:33:15.666Z,0
2023-01-05T00:34:15.264Z,0
2023-01-05T00:35:15.696Z,0.219
2023-01-05T00:36:15.710Z,0.109
2023-01-05T00:37:15.726Z,0.109
2023-01-05T00:38:15.278Z,0
2023-01-05T00:39:15.168Z,0
2023-01-05T00:40:15.149Z,0
2023-01-05T00:41:14.912Z,0
2023-01-05T00:42:15.560Z,0.219
2023-01-05T00:43:15.904Z,0.219
2023-01-05T00:44:15.552Z,0.219
2023-01-05T00:45:15.562Z,0
2023-01-05T00:46:15.799Z,0
2023-01-05T00:47:15.155Z,0
2023-01-05T00:48:14.911Z,0.109
2023-01-05T00:49:14.817Z,0.340
2023-01-05T00:50:14.746Z,0.340
2023-01-05T00:51:15.359Z,0.340
2023-01-05T00:52:15.189Z,0.340
2023-01-05T00:53:15.335Z,0.560
2023-01-05T00:54:15.376Z,0.219
2023-01-05T00:55:15.451Z,0.340
2023-01-05T00:56:15.724Z,0.109
2023-01-05T00:57:14.780Z,0.219
2023-01-05T00:58:15.680Z,0.449
2023-01-05T00:59:15.969Z,0.680
2023-01-05T01:00:15.616Z,0
2023-01-05T01:01:17.121Z,0.219
2023-01-05T01:03:15.634Z,0.219
2023-01-05T01:04:14.039Z,0.560
2023-01-05T01:05:15.490Z,0.340
2023-01-05T01:06:15.440Z,0.219
2023-01-05T01:07:15.652Z,0.340
2023-01-05T01:08:15.434Z,0.340
2023-01-05T01:09:15.456Z,0.449
2023-01-05T01:10:15.749Z,0.449
2023-01-05T01:11:15.064Z,0.370
2023-01-05T01:12:15.545Z,0.340
2023-01-05T01:13:15.616Z,0.219
2023-01-05T01:14:15.574Z,0.100
2023-01-05T01:15:15.490Z,0.449
2023-01-05T01:16:15.195Z,0.119
2023-01-05T01:17:15.902Z,0.219
2023-01-05T01:18:14.939Z,0.109
2023-01-05T01:19:14.952Z,0.109
2023-01-05T01:20:14.852Z,0.200
2023-01-05T01:21:15.012Z,0.239
2023-01-05T01:22:14.820Z,0.219
2023-01-05T01:23:15.167Z,0.109
2023-01-05T01:24:15.127Z,0.340
2023-01-05T01:25:15.259Z,0.219
2023-01-05T01:26:15.045Z,0.219
2023-01-05T01:27:15.378Z,0.219
2023-01-05T01:28:15.720Z,0.449
2023-01-05T01:29:15.975Z,0.340
2023-01-05T01:30:15.674Z,0.340
2023-01-05T01:31:14.511Z,0.219
2023-01-05T01:32:15.718Z,0.340
2023-01-05T01:33:15.875Z,0.109
2023-01-05T01:34:14.714Z,0
2023-01-05T01:35:16.095Z,0.109
2023-01-05T01:36:14.992Z,0.219
2023-01-05T01:37:15.064Z,0.109
2023-01-05T01:38:15.048Z,0.219
2023-01-05T01:39:15.213Z,0.219
2023-01-05T01:40:14.978Z,0.219
2023-01-05T01:41:14.824Z,0.109
2023-01-05T01:42:15.047Z,0.219
2023-01-05T01:43:15.201Z,0
2023-01-05T01:44:15.049Z,0.449
2023-01-05T01:45:15.470Z,0.340
2023-01-05T01:46:15.526Z,0.340
2023-01-05T01:47:16.095Z,0.109
2023-01-05T01:48:15.311Z,0.109
2023-01-05T01:49:15.814Z,0.109
2023-01-05T01:50:15.571Z,0
2023-01-05T01:51:15.108Z,0.109
2023-01-05T01:52:15.358Z,0.219
2023-01-05T01:53:15.371Z,0.219
2023-01-05T01:54:15.261Z,0.449
2023-01-05T01:55:15.671Z,0.340
2023-01-05T01:56:15.465Z,0.109
2023-01-05T01:57:15.739Z,0.219
2023-01-05T01:58:16.009Z,0.219
2023-01-05T01:59:15.305Z,0.449
2023-01-05T02:00:16.130Z,0.340
2023-01-05T02:01:15.598Z,0.219
2023-01-05T02:02:15.333Z,0
2023-01-05T02:03:15.819Z,0.219
2023-01-05T02:04:14.238Z,0.560
2023-01-05T02:05:15.191Z,0.109
2023-01-05T02:06:14.971Z,0.449
2023-01-05T02:07:14.597Z,0.219
2023-01-05T02:08:15.542Z,0.340
2023-01-05T02:09:15.855Z,0.680
2023-01-05T02:10:15.930Z,0.109
2023-01-05T02:11:14.772Z,0.560
2023-01-05T02:12:14.942Z,0.219
2023-01-05T02:13:15.242Z,0.449
2023-01-05T02:14:15.265Z,0.340
2023-01-05T02:15:15.304Z,0
2023-01-05T02:16:14.954Z,0.219
2023-01-05T02:17:14.889Z,0.109
2023-01-05T02:18:15.713Z,0.109
2023-01-05T02:19:15.707Z,0.219
2023-01-05T02:21:17.268Z,0.219
2023-01-05T02:22:15.188Z,0.340
2023-01-05T02:23:14.983Z,0.219
2023-01-05T02:24:14.727Z,0.560
2023-01-05T02:25:15.364Z,0.219
2023-01-05T02:26:15.947Z,0.449
2023-01-05T02:27:15.511Z,0.340
2023-01-05T02:28:15.698Z,0.449
2023-01-05T02:29:15.615Z,0.449
2023-01-05T02:30:15.680Z,0.219
2023-01-05T02:31:15.403Z,0.370
2023-01-05T02:32:15.538Z,0.109
2023-01-05T02:33:15.391Z,0.219
2023-01-05T02:34:15.318Z,0
2023-01-05T02:35:15.906Z,0.100
2023-01-05T02:36:15.363Z,0.119
2023-01-05T02:37:15.592Z,0.109
2023-01-05T02:38:15.653Z,0
2023-01-05T02:39:15.664Z,0.449
2023-01-05T02:40:15.617Z,0.109
2023-01-05T02:41:15.656Z,0.109
2023-01-05T02:42:15.838Z,0.219
2023-01-05T02:43:15.863Z,0.109
2023-01-05T02:44:15.599Z,0
2023-01-05T02:45:16.361Z,0.219
2023-01-05T02:46:15.678Z,0.449
2023-01-05T02:47:15.804Z,0.340
2023-01-05T02:48:15.202Z,0.340
2023-01-05T02:49:15.274Z,0.680
2023-01-05T02:50:15.414Z,0
2023-01-05T02:51:15.535Z,0.449
2023-01-05T02:52:15.388Z,0.560
2023-01-05T02:53:15.205Z,0.219
2023-01-05T02:54:14.761Z,0.219
2023-01-05T02:55:15.943Z,0.219
2023-01-05T02:56:15.782Z,0.219
2023-01-05T02:57:15.061Z,0.449
2023-01-05T02:58:14.842Z,0.219
2023-01-05T02:59:15.613Z,0.340
2023-01-05T03:00:16.421Z,0.219
2023-01-05T03:01:15.620Z,0.340
2023-01-05T03:02:15.699Z,0.340
2023-01-05T03:03:15.415Z,0.560
2023-01-05T03:04:15.067Z,0.219
2023-01-05T03:05:15.321Z,0.449
2023-01-05T03:06:15.005Z,0.449
2023-01-05T03:07:15.320Z,0.340
2023-01-05T03:08:15.441Z,0.449
2023-01-05T03:09:15.395Z,0.340
2023-01-05T03:10:15.770Z,0.790
2023-01-05T03:11:15.520Z,0
2023-01-05T03:12:15.862Z,0.219
2023-01-05T03:13:15.333Z,0.560
2023-01-05T03:14:15.744Z,0.340
2023-01-05T03:15:16.368Z,0.449
2023-01-05T03:16:15.589Z,0.680
2023-01-05T03:17:15.914Z,0.680
2023-01-05T03:18:15.039Z,0.790
2023-01-05T03:19:15.766Z,0.560
2023-01-05T03:20:15.494Z,0.680
2023-01-05T03:21:15.605Z,0.449
2023-01-05T03:22:15.034Z,0.340
2023-01-05T03:23:15.268Z,0.560
2023-01-05T03:24:15.083Z,0.219
2023-01-05T03:25:15.262Z,0.449
2023-01-05T03:26:15.165Z,0.340
2023-01-05T03:27:15.718Z,0.449
2023-01-05T03:28:15.530Z,0.340
2023-01-05T03:29:14.694Z,0.560
2023-01-05T03:30:15.688Z,0.560
2023-01-05T03:31:15.780Z,0.340
2023-01-05T03:32:15.767Z,0.449
2023-01-05T03:33:15.545Z,0.340
2023-01-05T03:34:15.721Z,0.340
2023-01-05T03:35:15.394Z,0.109
2023-01-05T03:36:15.439Z,0.449
2023-01-05T03:37:15.509Z,0.449
2023-01-05T03:38:18.268Z,0.109
2023-01-05T03:39:16.037Z,0.109
2023-01-05T03:40:16.098Z,0.449
2023-01-05T03:41:14.989Z,0.340
2023-01-05T03:42:15.082Z,0.449
2023-01-05T03:43:14.988Z,0.340
2023-01-05T03:44:15.023Z,0.340
2023-01-05T03:45:15.582Z,0.560
2023-01-05T03:46:15.594Z,0.449
2023-01-05T03:47:15.311Z,0.449
2023-01-05T03:48:15.542Z,0.449
2023-01-05T03:49:15.570Z,0.340
2023-01-05T03:50:15.618Z,0.449
2023-01-05T03:51:15.980Z,0.119
2023-01-05T03:52:15.223Z,0.680
2023-01-05T03:53:15.611Z,0.109
2023-01-05T03:54:15.783Z,0.829
2023-01-05T03:55:15.259Z,0.490
2023-01-05T03:56:15.138Z,0.219
2023-01-05T03:57:15.551Z,0.340
2023-01-05T03:58:15.600Z,0.340
2023-01-05T03:59:15.468Z,0.340
2023-01-05T04:00:16.348Z,0.340
2023-01-05T04:01:15.653Z,0.680
2023-01-05T04:02:15.498Z,0.109
2023-01-05T04:03:15.088Z,0.109
2023-01-05T04:04:15.404Z,0.340
2023-01-05T04:05:15.595Z,0.109
2023-01-05T04:06:15.177Z,0.560
2023-01-05T04:07:15.466Z,0.340
2023-01-05T04:08:15.498Z,0.340
2023-01-05T04:09:15.710Z,0.680
2023-01-05T04:10:15.927Z,0.219
2023-01-05T04:11:15.134Z,0.340
2023-01-05T04:12:15.154Z,0.560
2023-01-05T04:13:14.909Z,0.449
2023-01-05T04:14:14.499Z,0.680
2023-01-05T04:15:15.695Z,0.449
2023-01-05T04:16:15.273Z,0.219
2023-01-05T04:17:37.233Z,0.219
2023-01-05T04:18:15.257Z,0.680
2023-01-05T04:19:37.455Z,0.340
2023-01-05T04:20:15.380Z,0.449
2023-01-05T04:21:15.349Z,0.449
2023-01-05T04:22:15.457Z,0.219
2023-01-05T04:23:15.333Z,0.790
2023-01-05T04:24:15.293Z,0.340
2023-01-05T04:25:15.623Z,0.449
2023-01-05T04:26:15.808Z,0.560
2023-01-05T04:27:15.106Z,0.219
2023-01-05T04:28:14.848Z,0.109
2023-01-05T04:29:14.927Z,0.340
2023-01-05T04:30:15.674Z,0.219
2023-01-05T04:31:14.683Z,0.219
2023-01-05T04:32:15.811Z,0.340
2023-01-05T04:33:14.717Z,0.340
2023-01-05T04:34:15.500Z,0.219
2023-01-05T04:35:15.457Z,0.219
2023-01-05T04:36:15.477Z,0.109
2023-01-05T04:37:15.494Z,0.449
2023-01-05T04:38:15.114Z,0.109
2023-01-05T04:39:15.238Z,0.340
2023-01-05T04:40:15.260Z,0.449
2023-01-05T04:41:15.330Z,0.109
2023-01-05T04:42:15.414Z,0.219
2023-01-05T04:43:15.484Z,0.340
2023-01-05T04:44:15.451Z,0.340
2023-01-05T04:45:15.506Z,0
2023-01-05T04:46:15.697Z,0.560
2023-01-05T04:47:14.987Z,0.449
2023-01-05T04:48:15.040Z,0.219
2023-01-05T04:49:15.380Z,0.340
2023-01-05T04:50:15.770Z,0.449
2023-01-05T04:52:15.428Z,0.340
2023-01-05T04:53:15.433Z,0.449
2023-01-05T04:54:14.973Z,0.340
2023-01-05T04:55:15.067Z,0.109
2023-01-05T04:56:14.951Z,0.449
2023-01-05T04:57:14.981Z,0.449
2023-01-05T04:58:14.733Z,0.219
2023-01-05T04:59:15.905Z,0.219
2023-01-05T05:00:15.691Z,0.560
2023-01-05T05:01:15.205Z,0.899
2023-01-05T05:02:15.908Z,0.219
2023-01-05T05:03:15.085Z,0.790
2023-01-05T05:04:15.525Z,0.219
2023-01-05T05:05:15.756Z,0.560
2023-01-05T05:06:14.749Z,0.340
2023-01-05T05:07:15.972Z,0.340
2023-01-05T05:08:16.541Z,0.610
2023-01-05T05:09:14.934Z,0.219
2023-01-05T05:10:14.937Z,0.100
2023-01-05T05:11:15.139Z,0.740
2023-01-05T05:12:15.159Z,0.560
2023-01-05T05:13:14.861Z,0.449
2023-01-05T05:14:14.997Z,0.449
2023-01-05T05:15:14.732Z,0.219
2023-01-05T05:16:15.888Z,0.200
2023-01-05T05:17:15.931Z,0.370
2023-01-05T05:18:15.736Z,0.449
2023-01-05T05:19:14.662Z,0.560
2023-01-05T05:20:15.848Z,0.680
2023-01-05T05:21:15.003Z,0
2023-01-05T05:22:14.756Z,0.219
2023-01-05T05:23:15.409Z,0.219
2023-01-05T05:24:15.407Z,0.340
2023-01-05T05:25:15.158Z,0.109
2023-01-05T05:26:15.995Z,0.340
2023-01-05T05:27:15.010Z,0.219
2023-01-05T05:28:14.806Z,0.340
2023-01-05T05:29:15.870Z,0.340
2023-01-05T05:30:16.023Z,0.340
2023-01-05T05:31:14.971Z,0.449
2023-01-05T05:32:14.965Z,0.219
2023-01-05T05:33:15.153Z,0.340
2023-01-05T05:34:14.955Z,0.449
2023-01-05T05:35:16.112Z,0.340
2023-01-05T05:36:15.075Z,0.340
2023-01-05T05:37:15.342Z,0.560
2023-01-05T05:38:14.817Z,0.449
2023-01-05T05:39:15.848Z,0.219
2023-01-05T05:40:15.491Z,0.219
2023-01-05T05:41:15.083Z,0.340
2023-01-05T05:42:14.951Z,0.340
2023-01-05T05:43:14.610Z,0.340
2023-01-05T05:44:15.555Z,0.449
2023-01-05T05:45:16.092Z,0.340
2023-01-05T05:46:15.062Z,0.560
2023-01-05T05:47:15.154Z,0.109
2023-01-05T05:48:14.930Z,0.219
2023-01-05T05:49:15.208Z,0.219
2023-01-05T05:50:15.187Z,0.219
2023-01-05T05:51:15.227Z,0.340
2023-01-05T05:52:15.411Z,0.109
2023-01-05T05:53:15.497Z,0.219
2023-01-05T05:54:14.759Z,0
2023-01-05T05:55:16.029Z,0.109
2023-01-05T05:56:14.920Z,0.219
2023-01-05T05:57:14.988Z,0.109
2023-01-05T05:58:14.640Z,0
2023-01-05T05:59:14.865Z,0
2023-01-05T06:00:16.412Z,0.109
2023-01-05T06:01:15.901Z,0
2023-01-05T06:02:20.674Z,0.109
2023-01-05T06:03:15.730Z,0.109
2023-01-05T06:04:15.114Z,0
2023-01-05T06:05:15.466Z,0
2023-01-05T06:06:24.029Z,0.109
2023-01-05T06:07:15.301Z,0.109
2023-01-05T06:08:15.363Z,0.109
2023-01-05T06:09:16.704Z,0
2023-01-05T06:10:15.996Z,0
2023-01-05T06:11:16.030Z,0
2023-01-05T06:12:15.366Z,0.109
2023-01-05T06:13:16.072Z,0
2023-01-05T06:14:24.845Z,0.340
2023-01-05T06:15:15.891Z,0.219
2023-01-05T06:16:30.025Z,0
2023-01-05T06:17:17.206Z,0.219
2023-01-05T06:18:15.310Z,0.109
2023-01-05T06:19:15.619Z,0.219
2023-01-05T06:20:15.496Z,0
2023-01-05T06:21:15.378Z,0.219
2023-01-05T06:22:16.419Z,0.340
2023-01-05T06:23:16.081Z,0.109
2023-01-05T06:24:16.104Z,0.109
2023-01-05T06:25:16.111Z,0.219
2023-01-05T06:26:15.353Z,0.370
2023-01-05T06:27:15.046Z,0.109
2023-01-05T06:28:20.109Z,0.340
2023-01-05T06:29:15.529Z,0.109
2023-01-05T06:30:16.088Z,0.219
2023-01-05T06:31:15.851Z,0
2023-01-05T06:32:34.466Z,0.219
2023-01-05T06:33:16.313Z,0.200
2023-01-05T06:34:15.978Z,0.340
2023-01-05T06:35:16.225Z,0
2023-01-05T06:36:15.559Z,0.340
2023-01-05T06:37:16.091Z,0.680
2023-01-05T06:38:14.983Z,0.109
2023-01-05T06:39:15.522Z,0.109
2023-01-05T06:40:15.330Z,0.310
2023-01-05T06:41:15.556Z,0.119
2023-01-05T06:42:18.938Z,0.109
2023-01-05T06:43:15.744Z,0
2023-01-05T06:44:15.318Z,0
2023-01-05T06:45:16.445Z,0
2023-01-05T06:46:16.199Z,0
2023-01-05T06:47:16.614Z,0
2023-01-05T06:48:16.197Z,0
2023-01-05T06:49:15.171Z,0
2023-01-05T06:50:15.815Z,0
2023-01-05T06:51:15.280Z,13600
2023-01-05T06:52:16.807Z,0
2023-01-05T06:53:15.018Z,0
2023-01-05T06:54:15.164Z,0
2023-01-05T06:55:15.881Z,0
2023-01-05T06:56:15.439Z,0
2023-01-05T06:57:15.278Z,13600
2023-01-05T06:58:16.007Z,0
2023-01-05T06:59:15.286Z,0
2023-01-05T07:00:17.079Z,0
2023-01-05T07:01:16.450Z,0
2023-01-05T07:02:16.450Z,0
2023-01-05T07:03:15.816Z,0
2023-01-05T07:04:15.929Z,0
2023-01-05T07:05:17.019Z,0.680
2023-01-05T07:06:15.624Z,0.680
2023-01-05T07:07:15.723Z,0.730
2023-01-05T07:08:16.374Z,0.899
2023-01-05T07:09:15.984Z,1.899
2023-01-05T07:10:15.467Z,2.089
2023-01-05T07:11:16.044Z,3.079
2023-01-05T07:12:16.001Z,2.890
2023-01-05T07:13:16.474Z,3.779
2023-01-05T07:14:16.082Z,4.329
2023-01-05T07:15:16.573Z,4.949
2023-01-05T07:16:15.834Z,5.469
2023-01-05T07:17:15.358Z,7.5
2023-01-05T07:18:16.151Z,9.119
2023-01-05T07:19:16.141Z,11.02
2023-01-05T07:20:15.637Z,12.77
2023-01-05T07:21:16.011Z,12.94
2023-01-05T07:22:15.681Z,13.14
2023-01-05T07:23:15.738Z,14.56
2023-01-05T07:24:15.714Z,16.27
2023-01-05T07:25:16.001Z,17.14
2023-01-05T07:26:15.134Z,21.5
2023-01-05T07:27:15.628Z,29.39
2023-01-05T07:28:15.619Z,36.29
2023-01-05T07:29:15.808Z,41.5
2023-01-05T07:30:16.234Z,45.90
2023-01-05T07:31:16.008Z,50.79
2023-01-05T07:32:15.473Z,56.70
2023-01-05T07:33:15.759Z,60.70
2023-01-05T07:34:14.645Z,63.59
2023-01-05T07:35:15.402Z,66.76
2023-01-05T07:36:14.792Z,68.30
2023-01-05T07:37:15.188Z,67.56
2023-01-05T07:38:15.206Z,69.5
2023-01-05T07:39:15.876Z,71.94
2023-01-05T07:40:15.226Z,72.41
2023-01-05T07:41:16.024Z,67
2023-01-05T07:42:15.553Z,56.70
2023-01-05T07:43:15.381Z,56.70
2023-01-05T07:44:15.947Z,68
2023-01-05T07:45:15.854Z,72.88
2023-01-05T07:46:15.544Z,82
2023-01-05T07:47:16.119Z,94.59
2023-01-05T07:48:23.284Z,100.1
2023-01-05T07:49:16.525Z,107.6
2023-01-05T07:50:16.104Z,108
2023-01-05T07:51:16.454Z,98.80
2023-01-05T07:52:15.945Z,98.90
2023-01-05T07:53:16.035Z,105.5
2023-01-05T07:54:15.900Z,111
2023-01-05T07:55:16.572Z,135
2023-01-05T07:56:15.561Z,148.1
2023-01-05T07:57:16.662Z,162
2023-01-05T07:58:16.373Z,180.1
2023-01-05T07:59:16.239Z,173
2023-01-05T08:00:17.156Z,130
2023-01-05T08:01:16.491Z,99
2023-01-05T08:02:15.785Z,105.1
2023-01-05T08:03:15.840Z,109.5
2023-01-05T08:04:16.485Z,128
2023-01-05T08:05:16.407Z,154
2023-01-05T08:06:15.883Z,156
2023-01-05T08:07:16.628Z,146.8
2023-01-05T08:08:22.244Z,143.1
2023-01-05T08:09:16.055Z,160
2023-01-05T08:10:15.835Z,189
2023-01-05T08:11:15.649Z,202.5
2023-01-05T08:12:16.064Z,200
2023-01-05T08:13:15.989Z,226
2023-01-05T08:14:15.771Z,260
2023-01-05T08:15:15.855Z,285
2023-01-05T08:16:16.035Z,303
2023-01-05T08:17:15.751Z,315
2023-01-05T08:18:16.059Z,350
2023-01-05T08:19:15.819Z,410
2023-01-05T08:20:15.579Z,470
2023-01-05T08:21:15.425Z,511
2023-01-05T08:22:16.254Z,550
2023-01-05T08:23:25.266Z,614
2023-01-05T08:24:15.937Z,595
2023-01-05T08:25:15.684Z,560
2023-01-05T08:26:15.340Z,500
2023-01-05T08:27:15.696Z,487
2023-01-05T08:28:16.289Z,520
2023-01-05T08:29:15.597Z,542.2
2023-01-05T08:30:15.761Z,570
2023-01-05T08:31:16.059Z,640
2023-01-05T08:32:16.394Z,662.9
2023-01-05T08:33:16.628Z,677
2023-01-05T08:34:15.681Z,679
2023-01-05T08:35:16.041Z,600
2023-01-05T08:36:16.333Z,559
2023-01-05T08:37:16.303Z,600
2023-01-05T08:38:16.629Z,800
2023-01-05T08:39:15.579Z,922
2023-01-05T08:40:16.076Z,850
2023-01-05T08:41:15.898Z,770
2023-01-05T08:42:16.413Z,800
2023-01-05T08:43:16.734Z,900
2023-01-05T08:44:16.122Z,1000
2023-01-05T08:45:16.756Z,1030
2023-01-05T08:46:16.238Z,800
2023-01-05T08:47:30.541Z,700
2023-01-05T08:48:16.426Z,660
2023-01-05T08:49:16.074Z,700
2023-01-05T08:50:15.789Z,800
2023-01-05T08:51:16.348Z,860
2023-01-05T08:52:15.890Z,800
2023-01-05T08:53:16.217Z,980
2023-01-05T08:54:15.570Z,900
2023-01-05T08:55:16.011Z,895
2023-01-05T08:56:16.288Z,800
2023-01-05T08:57:16.653Z,790
2023-01-05T08:58:15.236Z,857
2023-01-05T08:59:16.504Z,820
2023-01-05T09:00:17.483Z,750
2023-01-05T09:01:15.864Z,790
2023-01-05T09:02:21.688Z,900
2023-01-05T09:03:16.422Z,1000
2023-01-05T09:04:15.879Z,1390
2023-01-05T09:05:15.620Z,1350
2023-01-05T09:06:15.729Z,1290
2023-01-05T09:07:16.143Z,1300
2023-01-05T09:08:16.228Z,1350
2023-01-05T09:09:16.140Z,1363
2023-01-05T09:10:16.182Z,1200
2023-01-05T09:11:15.773Z,1180
2023-01-05T09:12:15.380Z,1250
2023-01-05T09:13:15.569Z,1300
2023-01-05T09:14:15.907Z,1400
2023-01-05T09:15:16.484Z,1500
2023-01-05T09:16:24.825Z,1600
2023-01-05T09:17:16.142Z,1000
2023-01-05T09:18:15.548Z,2140
2023-01-05T09:19:16.033Z,2100
2023-01-05T09:20:15.777Z,2000
2023-01-05T09:21:16.001Z,1000
2023-01-05T09:22:15.677Z,1400
2023-01-05T09:23:16.519Z,1270
2023-01-05T09:24:15.390Z,1270
2023-01-05T09:25:15.843Z,1200
2023-01-05T09:26:15.537Z,1060
2023-01-05T09:27:15.770Z,1083
2023-01-05T09:28:15.578Z,1060
2023-01-05T09:30:16.768Z,810
2023-01-05T09:31:15.530Z,820
2023-01-05T09:32:16.083Z,900
2023-01-05T09:33:16.383Z,1060
2023-01-05T09:34:15.436Z,1075
2023-01-05T09:35:15.336Z,1080
2023-01-05T09:36:14.900Z,1110
2023-01-05T09:37:16.730Z,1000
2023-01-05T09:38:15.526Z,1000
2023-01-05T09:39:16.043Z,1900
2023-01-05T09:40:16.338Z,1980
2023-01-05T09:41:15.643Z,1870
2023-01-05T09:42:16.288Z,1830
2023-01-05T09:43:15.572Z,1890
2023-01-05T09:44:15.279Z,1980
2023-01-05T09:45:16.664Z,2000
2023-01-05T09:46:15.239Z,2200
2023-01-05T09:47:16.744Z,2330
2023-01-05T09:48:16.272Z,2390
2023-01-05T09:49:15.994Z,2200
2023-01-05T09:50:16.485Z,2080
2023-01-05T09:51:15.956Z,2060
2023-01-05T09:52:16.396Z,2000
2023-01-05T09:53:16.576Z,2500
2023-01-05T09:54:16.177Z,2600
2023-01-05T09:55:15.694Z,2800
2023-01-05T09:56:34.524Z,3040
2023-01-05T09:57:24.350Z,3010
2023-01-05T09:58:16.300Z,2000
2023-01-05T09:59:16.567Z,2500
2023-01-05T10:00:17.239Z,2600
2023-01-05T10:01:16.389Z,2800
2023-01-05T10:02:15.598Z,3000
2023-01-05T10:03:36.556Z,3130
2023-01-05T10:04:30.068Z,3300
2023-01-05T10:05:16.924Z,3000
2023-01-05T10:06:15.850Z,4000
2023-01-05T10:07:15.960Z,4200
2023-01-05T10:08:15.614Z,4000
2023-01-05T10:09:15.864Z,3860
2023-01-05T10:10:15.672Z,3800
2023-01-05T10:11:16.133Z,3900
2023-01-05T10:12:16.035Z,3800
2023-01-05T10:13:16.571Z,3680
2023-01-05T10:14:15.528Z,3000
2023-01-05T10:15:16.242Z,4100
2023-01-05T10:16:16.429Z,4100
2023-01-05T10:17:40.585Z,3000
2023-01-05T10:18:16.993Z,3500
2023-01-05T10:19:16.196Z,3000
2023-01-05T10:20:16.415Z,4000
2023-01-05T10:21:16.220Z,4200
2023-01-05T10:22:16.265Z,4130
2023-01-05T10:23:16.393Z,3000
2023-01-05T10:24:16.666Z,3000
2023-01-05T10:25:16.354Z,3200
2023-01-05T10:26:15.577Z,3000
2023-01-05T10:27:25.041Z,4000
2023-01-05T10:28:16.177Z,4400
2023-01-05T10:29:16.616Z,4300
2023-01-05T10:30:16.016Z,4000
2023-01-05T10:31:16.622Z,4600
2023-01-05T10:32:16.035Z,4400
2023-01-05T10:33:27.878Z,4100
2023-01-05T10:34:16.385Z,4100
2023-01-05T10:35:41.992Z,4100
2023-01-05T10:36:19.357Z,3000
2023-01-05T10:37:15.944Z,3430
2023-01-05T10:38:16.145Z,3600
2023-01-05T10:39:16.308Z,3721
2023-01-05T10:40:16.556Z,3800
2023-01-05T10:41:15.892Z,3900
2023-01-05T10:42:15.223Z,3700
2023-01-05T10:43:16.583Z,3500
2023-01-05T10:44:15.605Z,3300
2023-01-05T10:45:16.074Z,3280
2023-01-05T10:46:39.945Z,3300
2023-01-05T10:47:16.740Z,3400
2023-01-05T10:48:15.907Z,4000
2023-01-05T10:49:16.065Z,4500
2023-01-05T10:50:15.865Z,4000
2023-01-05T10:51:16.150Z,3500
2023-01-05T10:52:16.222Z,3400
2023-01-05T10:53:16.848Z,3200
2023-01-05T10:54:16.006Z,3000
2023-01-05T10:55:16.449Z,3700
2023-01-05T10:56:15.867Z,3700
2023-01-05T10:57:15.712Z,3500
2023-01-05T10:58:16.530Z,3200
2023-01-05T10:59:15.874Z,3120
2023-01-05T11:00:16.978Z,2000
2023-01-05T11:01:16.565Z,2500
2023-01-05T11:02:15.957Z,2430
2023-01-05T11:03:16.577Z,2500
2023-01-05T11:04:35.083Z,2000
2023-01-05T11:05:16.161Z,3000
2023-01-05T11:06:16.527Z,3510
2023-01-05T11:07:16.349Z,3300
2023-01-05T11:08:16.346Z,2000
2023-01-05T11:09:20.282Z,2700
2023-01-05T11:10:16.887Z,3000
2023-01-05T11:11:15.778Z,3000
2023-01-05T11:12:15.608Z,4000
2023-01-05T11:13:15.957Z,4400
2023-01-05T11:14:15.947Z,4440
2023-01-05T11:15:16.519Z,4300
2023-01-05T11:16:16.576Z,4190
2023-01-05T11:17:16.164Z,3000
2023-01-05T11:18:15.911Z,3000
2023-01-05T11:19:16.232Z,2600
2023-01-05T11:20:16.418Z,2400
2023-01-05T11:21:15.915Z,2000
2023-01-05T11:22:15.670Z,3000
2023-01-05T11:23:15.685Z,3000
2023-01-05T11:24:15.544Z,3000
2023-01-05T11:25:16.136Z,3570
2023-01-05T11:26:16.121Z,3000
2023-01-05T11:27:15.960Z,4000
2023-01-05T11:28:15.675Z,5000
2023-01-05T11:29:15.796Z,5000
2023-01-05T11:30:16.449Z,5400
2023-01-05T11:31:16.209Z,0
2023-01-05T11:32:15.836Z,3300
2023-01-05T11:33:18.625Z,3000
2023-01-05T11:34:16.328Z,4000
2023-01-05T11:35:16.568Z,3000
2023-01-05T11:36:16.702Z,3500
2023-01-05T11:37:15.950Z,3600
2023-01-05T11:38:15.884Z,4000
2023-01-05T11:39:16.335Z,4600
2023-01-05T11:40:16.395Z,4000
2023-01-05T11:41:16.439Z,3000
2023-01-05T11:42:21.579Z,3000
2023-01-05T11:43:16.018Z,2990
2023-01-05T11:44:15.824Z,3000
2023-01-05T11:45:16.016Z,3000
2023-01-05T11:46:16.402Z,4000
2023-01-05T11:47:15.465Z,3900
2023-01-05T11:48:15.908Z,4000
2023-01-05T11:49:16.390Z,4800
2023-01-05T11:50:16.463Z,4760
2023-01-05T11:51:15.512Z,4700
2023-01-05T11:52:16.176Z,4900
2023-01-05T11:53:15.877Z,4000
2023-01-05T11:54:15.932Z,3000
2023-01-05T11:55:16.234Z,3000
2023-01-05T11:56:15.714Z,2000
2023-01-05T11:57:16.286Z,2200
2023-01-05T11:58:16.123Z,2000
2023-01-05T11:59:16.434Z,3000
2023-01-05T12:00:16.467Z,0
2023-01-05T12:01:16.319Z,5000
2023-01-05T12:02:16.961Z,6000
2023-01-05T12:03:16.546Z,6100
2023-01-05T12:04:15.637Z,5000
2023-01-05T12:05:16.367Z,5000
2023-01-05T12:06:16.138Z,5000
2023-01-05T12:07:16.565Z,5000
2023-01-05T12:08:15.532Z,5000
2023-01-05T12:09:15.495Z,5000
2023-01-05T12:10:16.389Z,5940
2023-01-05T12:11:16.270Z,5000
2023-01-05T12:12:15.410Z,5000
2023-01-05T12:13:15.495Z,4000
2023-01-05T12:14:15.559Z,4600
2023-01-05T12:15:15.810Z,4500
2023-01-05T12:16:15.557Z,4000
2023-01-05T12:17:15.692Z,5000
2023-01-05T12:18:16.076Z,5000
2023-01-05T12:19:16.309Z,4000
2023-01-05T12:20:16.422Z,4000
2023-01-05T12:21:16.470Z,4000
2023-01-05T12:22:16.356Z,4000
2023-01-05T12:23:16.467Z,4400
2023-01-05T12:24:16.058Z,4400
2023-01-05T12:25:16.533Z,4320
2023-01-05T12:26:16.381Z,4400
2023-01-05T12:27:16.457Z,3000
2023-01-05T12:28:29.276Z,3400
2023-01-05T12:34:15.939Z,1300
2023-01-05T12:35:15.756Z,1400
2023-01-05T12:36:15.730Z,1000
2023-01-05T12:37:16.038Z,2000
2023-01-05T12:38:15.984Z,3000
2023-01-05T12:39:16.098Z,4000
2023-01-05T12:40:16.330Z,4800
2023-01-05T12:41:15.593Z,5000
2023-01-05T12:42:15.104Z,5000
2023-01-05T12:43:16.326Z,4000
2023-01-05T12:44:16.044Z,0
2023-01-05T12:45:16.247Z,2000
2023-01-05T12:46:15.822Z,2700
2023-01-05T12:47:16.255Z,3000
2023-01-05T12:48:16.071Z,3300
2023-01-05T12:49:16.412Z,3600
2023-01-05T12:50:16.413Z,3000
2023-01-05T12:51:15.924Z,3000
2023-01-05T12:52:15.761Z,2900
2023-01-05T12:53:16.120Z,2000
2023-01-05T12:54:16.648Z,2100
2023-01-05T12:55:16.076Z,2220
2023-01-05T12:56:15.701Z,2300
2023-01-05T12:57:16.052Z,2000
2023-01-05T12:58:16.145Z,3000
2023-01-05T12:59:15.973Z,3055
2023-01-05T13:00:17.123Z,2900
2023-01-05T13:01:16.797Z,2600
2023-01-05T13:02:16.840Z,2000
2023-01-05T13:03:16.754Z,3000
2023-01-05T13:04:15.718Z,4000
2023-01-05T13:05:16.197Z,4500
2023-01-05T13:06:16.548Z,4000
2023-01-05T13:07:15.536Z,3800
2023-01-05T13:08:15.893Z,3000
2023-01-05T13:09:16.286Z,4000
2023-01-05T13:10:16.647Z,3000
2023-01-05T13:11:21.189Z,2000
2023-01-05T13:12:16.412Z,2200
2023-01-05T13:13:16.157Z,2000
2023-01-05T13:14:16.111Z,2800
2023-01-05T13:15:21.602Z,2800
2023-01-05T13:16:15.673Z,2700
2023-01-05T13:17:16.560Z,2690
2023-01-05T13:18:16.203Z,2800
2023-01-05T13:19:16.546Z,3000
2023-01-05T13:20:16.386Z,3000
2023-01-05T13:21:16.160Z,3700
2023-01-05T13:22:15.891Z,3400
2023-01-05T13:23:16.478Z,3200
2023-01-05T13:24:16.176Z,3000
2023-01-05T13:25:16.881Z,3000